Bedford, Michigan
Current Conditions -  °F | °C
As of 8:05 AM on Tuesday 21 Oct 2014 (Local Time) from KBTL Reporting Station
Light Rain Light Rain  
Wind Chill:   Ceiling: 800
Heat Index:   Visibility: 5mi
Dew Point:   Wind: 7mph
Humidity: 86%   Direction: 330°NNW
Pressure: 30.02"   Gusts: NA
Location:  42.4°N, 85.23°W
Report Text: KBTL 211205Z 33006KT 5SM -RA BR OVC008 08/06 A3002 RMK AO2 CIG 006V012 P0000 T00780056
Loading
Personal Weather Stations






























Interactive Weather Map
Tropical Storm Tracking
New forecast layout! Learn more

10-Day Weather Forecast

Advertisements
Track Severe Weather on mobile